Time;durP1;ratioP1;P1;durP2;ratioP2;P2;SDS_P1;SDS_P2;PMS_P1;PMS_P2;Temp;Humidity;BMP_temperature;BMP_pressure;BME280_temperature;BME280_humidity;BME280_pressure;Samples;Min_cycle;Max_cycle;Signal;HPM_P1;HPM_P2
2022/04/28 15:56:13;;;;;;;;;;;;;;;21.15;30.14;100163.44;5365943;26;34936;-92
2022/04/28 16:15:34;;;;;;;;;;;;;;;20.81;32.97;100178.28;5361713;26;35094;-91
2022/04/28 16:19:51;;;;;;;;;;;;;;;20.86;33.07;100180.69;5238698;27;34473;-91
2022/04/28 16:23:19;;;;;;;;;;;;;;;20.81;33.48;100183.53;5171459;27;34968;-93
2022/04/28 16:26:10;;;;;;;;;;;;;;;20.91;34.37;100189.22;5181148;27;33407;-94
2022/04/28 16:28:59;;;;;;;;;;;;;;;20.26;34.96;100199.25;5170252;27;34028;-91
2022/04/28 16:31:29;;;;;;;;;;;;;;;19.46;36.71;100202.69;5185226;27;34607;-91
2022/04/28 16:34:00;;;;;;;;;;;;;;;19.01;39.83;100202.78;5196588;27;34718;-90
2022/04/28 16:36:28;;;;;;;;;;;;;;;18.99;40.70;100213.34;5188221;27;34676;-92
2022/04/28 16:38:57;;;;;;;;;;;;;;;18.26;43.44;100204.69;5186135;27;34241;-91
2022/04/28 16:41:26;;;;;;;;;;;;;;;18.54;43.67;100198.44;5187617;27;34106;-91
2022/04/28 16:44:02;;;;;;;;;;;;;;;18.68;41.44;100201.38;5222348;27;33771;-90
2022/04/28 16:46:31;;;;;;;;;;;;;;;18.32;42.25;100201.84;5227947;27;32250;-91
2022/04/28 16:49:04;;;;;;;;;;;;;;;18.29;42.85;100203.72;5228585;27;33621;-89
2022/04/28 16:52:01;;;;;;;;;;;;;;;18.28;41.78;100202.87;5232382;27;34148;-90
2022/04/28 16:54:51;;;;;;;;;;;;;;;18.46;44.54;100206.59;5234047;27;33772;-93
2022/04/28 16:57:45;;;;;;;;;;;;;;;18.71;42.81;100205.66;5229346;27;32762;-91
2022/04/28 17:00:40;;;;;;;;;;;;;;;18.77;45.19;100210.69;5338188;26;34106;-92
2022/04/28 17:06:13;;;;;;;;;;;;;;;18.69;42.94;100220.63;5342516;26;34663;-91
2022/04/28 17:09:09;;;;;;;;;;;;;;;18.94;44.13;100223.19;5343552;26;33256;-91
2022/04/28 17:11:53;;;;;;;;;;;;;;;19.11;44.54;100219.87;5341451;26;33670;-90
2022/04/28 17:14:57;;;;;;;;;;;;;;;19.09;45.63;100227.84;5341009;26;34383;-91
2022/04/28 17:18:00;;;;;;;;;;;;;;;;;;;;;
2022/04/28 17:20:50;;;;;;;;;;;;;;;19.18;45.40;100232.75;5339966;26;33235;-91
2022/04/28 17:23:21;;;;;;;;;;;;;;;19.20;45.96;100237.94;5339160;26;34271;-91
2022/04/28 17:25:52;;;;;;;;;;;;;;;19.23;45.40;100234.31;5339039;26;34265;-91
2022/04/28 19:07:38;;;;;;;;;;;;;;;17.58;53.55;100386.34;5131612;27;31737;-93
2022/04/28 19:56:07;;;;;;;;;;;;;;;16.61;56.62;100442.34;5252712;26;19986;-91
2022/04/28 19:59:19;;;;;;;;;;;;;;;16.58;56.97;100445.06;5339214;26;32845;-92
2022/04/28 20:05:55;;;;;;;;;;;;;;;16.55;57.24;100445.16;5266647;27;34526;-92
2022/04/28 20:09:01;;;;;;;;;;;;;;;16.45;57.34;100446.25;5243418;27;33831;-93
2022/04/28 20:22:19;;;;;;;;;;;;;;;16.63;55.87;100453.66;5235847;27;34715;-91
2022/04/28 20:25:06;;;;;;;;;;;;;;;16.45;56.44;100443.66;5247669;27;33191;-95
2022/04/28 20:28:01;;;;;;;;;;;;;;;16.38;56.10;100445.59;5247454;27;33704;-91
2022/04/28 20:31:01;;;;;;;;;;;;;;;16.31;56.29;100444.00;5246952;27;35704;-92
2022/04/28 21:30:31;;;;;;;;;;;;;;;15.30;54.01;100506.38;5194698;27;33320;-92
2022/04/28 21:33:06;;;;;;;;;;;;;;;15.29;51.87;100502.03;5230444;27;34413;-92
2022/04/28 21:35:38;;;;;;;;;;;;;;;15.35;53.53;100515.00;5227696;27;34118;-90
2022/04/28 21:38:08;;;;;;;;;;;;;;;14.86;54.28;100515.88;5226981;27;33772;-91
2022/04/28 22:48:02;;;;;;;;;;;;;;;15.19;48.53;100518.78;5251835;27;20218;-92
2022/04/28 22:55:36;;;;;;;;;;;;;;;15.06;50.55;100523.41;5135109;27;34934;-92
2022/04/28 23:27:35;;;;;;;;;;;;;;;14.57;50.88;100508.56;4982772;28;34073;-91
2022/04/28 23:33:04;;;;;;;;;;;;;;;14.57;51.04;100508.56;5010152;28;32765;-89
